Time;durP1;ratioP1;P1;durP2;ratioP2;P2;SDS_P1;SDS_P2;PMS_P1;PMS_P2;Temp;Humidity;BMP_temperature;BMP_pressure;BME280_temperature;BME280_humidity;BME280_pressure;Samples;Min_cycle;Max_cycle;Signal;HPM_P1;HPM_P2
2023/06/29 00:00:40;;;;;;;4.62;1.50;;;;;;;16.37;94.06;100340.47;5586111;31;33901;-68
2023/06/29 00:03:43;;;;;;;4.30;1.37;;;;;;;16.46;93.74;100347.28;5586312;31;34479;-68
2023/06/29 00:06:46;;;;;;;4.50;1.50;;;;;;;16.43;95.72;100330.81;5585923;31;33839;-68
2023/06/29 00:09:50;;;;;;;7.95;1.60;;;;;;;16.16;98.21;100331.84;5585994;31;33762;-68
2023/06/29 00:12:52;;;;;;;4.75;1.65;;;;;;;15.93;99.62;100334.88;5585937;31;34506;-68
2023/06/29 00:15:55;;;;;;;4.78;1.60;;;;;;;15.74;100.00;100341.03;5586450;31;33662;-68
2023/06/29 00:19:00;;;;;;;3.00;1.33;;;;;;;15.63;100.00;100348.63;5586022;31;33784;-68
2023/06/29 00:22:03;;;;;;;2.97;1.35;;;;;;;15.62;100.00;100338.97;5586105;31;33654;-69
2023/06/29 00:25:09;;;;;;;4.15;1.50;;;;;;;15.82;100.00;100339.00;5588336;31;34764;-69
2023/06/29 00:28:13;;;;;;;2.35;1.60;;;;;;;15.80;100.00;100337.53;5588428;31;33670;-68
2023/06/29 00:31:16;;;;;;;3.58;1.35;;;;;;;15.66;100.00;100336.69;5588310;31;34484;-68
2023/06/29 00:34:18;;;;;;;3.00;1.37;;;;;;;15.63;100.00;100340.59;5588317;31;34258;-69
2023/06/29 00:37:21;;;;;;;3.80;1.85;;;;;;;15.63;100.00;100339.78;5588776;31;33552;-68
2023/06/29 00:40:24;;;;;;;4.47;1.60;;;;;;;15.52;100.00;100343.03;5588364;31;33686;-68
2023/06/29 00:43:27;;;;;;;3.85;1.40;;;;;;;15.53;100.00;100339.34;5588204;31;33952;-68
2023/06/29 00:46:30;;;;;;;3.17;1.40;;;;;;;15.48;100.00;100341.75;5587981;31;33816;-68
2023/06/29 00:49:33;;;;;;;3.42;1.58;;;;;;;15.42;100.00;100337.19;5587822;31;33660;-68
2023/06/29 00:52:37;;;;;;;2.35;1.25;;;;;;;15.37;100.00;100329.78;5588279;31;34231;-68
2023/06/29 00:55:40;;;;;;;4.00;1.40;;;;;;;15.36;100.00;100332.66;5588359;31;33524;-68
2023/06/29 00:58:43;;;;;;;3.17;1.62;;;;;;;15.37;100.00;100332.44;5587333;31;33487;-68
2023/06/29 01:01:46;;;;;;;3.45;1.60;;;;;;;15.46;100.00;100335.78;5587395;31;33678;-69
2023/06/29 01:04:49;;;;;;;4.65;1.62;;;;;;;15.52;100.00;100338.50;5588126;31;34501;-68
2023/06/29 01:08:01;;;;;;;4.50;1.48;;;;;;;15.53;100.00;100334.00;5588165;31;33636;-68
2023/06/29 01:11:05;;;;;;;4.32;1.55;;;;;;;15.56;100.00;100329.06;5587949;31;33680;-68
2023/06/29 01:14:13;;;;;;;4.53;1.58;;;;;;;15.60;100.00;100335.66;5588000;31;32300;-68
2023/06/29 01:17:22;;;;;;;1.83;1.20;;;;;;;15.61;100.00;100331.94;5588416;31;34322;-69
2023/06/29 01:20:26;;;;;;;3.00;1.30;;;;;;;15.61;100.00;100329.28;5587052;31;34657;-69
2023/06/29 01:23:36;;;;;;;2.00;1.40;;;;;;;15.58;100.00;100327.03;5587898;31;33726;-69
2023/06/29 01:26:40;;;;;;;3.40;1.70;;;;;;;15.57;100.00;100328.03;5588108;31;33910;-68
2023/06/29 01:29:43;;;;;;;6.70;1.55;;;;;;;15.57;100.00;100329.88;5588100;31;33911;-69
2023/06/29 01:32:45;;;;;;;5.82;1.50;;;;;;;15.68;100.00;100336.50;5587936;31;33776;-68
2023/06/29 01:35:56;;;;;;;4.68;1.60;;;;;;;15.95;100.00;100327.50;5587181;31;33841;-68
2023/06/29 01:39:29;;;;;;;4.28;1.30;;;;;;;15.92;100.00;100325.25;5587877;31;33693;-68
2023/06/29 01:42:32;;;;;;;5.32;1.55;;;;;;;15.85;100.00;100325.22;5584324;31;34158;-68
2023/06/29 01:45:36;;;;;;;6.05;1.60;;;;;;;15.92;100.00;100327.91;5586840;31;33724;-68
2023/06/29 01:48:40;;;;;;;5.90;1.65;;;;;;;15.79;100.00;100315.31;5587615;31;33487;-69
2023/06/29 01:51:42;;;;;;;4.30;1.42;;;;;;;15.76;100.00;100320.25;5588080;31;33758;-68
2023/06/29 01:54:45;;;;;;;3.75;1.40;;;;;;;15.78;100.00;100316.34;5587761;31;33740;-68
2023/06/29 01:57:48;;;;;;;4.20;1.55;;;;;;;15.71;100.00;100320.03;5587679;31;33532;-67
2023/06/29 02:00:50;;;;;;;5.47;1.50;;;;;;;15.56;100.00;100326.38;5587630;31;33573;-68
2023/06/29 02:03:53;;;;;;;4.25;1.37;;;;;;;15.62;100.00;100322.09;5587597;31;34487;-68
2023/06/29 02:06:58;;;;;;;2.42;1.50;;;;;;;15.62;100.00;100317.56;5587707;31;34441;-68
2023/06/29 02:10:01;;;;;;;3.45;1.50;;;;;;;15.71;100.00;100320.88;5586700;31;33789;-68
2023/06/29 02:13:03;;;;;;;4.47;1.60;;;;;;;15.59;100.00;100317.94;5587449;31;34907;-68
2023/06/29 02:16:06;;;;;;;3.62;1.33;;;;;;;15.67;100.00;100330.31;5586637;31;34808;-68
2023/06/29 02:19:11;;;;;;;4.25;1.85;;;;;;;15.61;100.00;100329.28;5587559;31;33482;-69
2023/06/29 02:22:13;;;;;;;1.87;1.30;;;;;;;15.67;100.00;100330.31;5587484;31;34455;-69
2023/06/29 02:25:17;;;;;;;7.57;1.58;;;;;;;15.78;100.00;100332.37;5587626;31;34438;-68
2023/06/29 02:28:19;;;;;;;5.57;1.62;;;;;;;15.86;100.00;100336.75;5587353;31;33698;-68
2023/06/29 02:31:22;;;;;;;5.60;1.62;;;;;;;15.83;100.00;100337.16;5586502;31;34770;-67
2023/06/29 02:34:25;;;;;;;6.95;1.85;;;;;;;15.74;100.00;100333.00;5587290;31;34826;-68
2023/06/29 02:37:28;;;;;;;7.45;1.67;;;;;;;15.79;100.00;100331.38;5587581;31;34770;-67
2023/06/29 02:40:31;;;;;;;2.55;1.50;;;;;;;15.66;100.00;100336.69;5587402;31;33875;-68
2023/06/29 02:43:34;;;;;;;3.60;1.77;;;;;;;15.63;100.00;100329.09;5586329;31;34236;-66
2023/06/29 02:46:36;;;;;;;4.57;1.98;;;;;;;15.64;100.00;100330.72;5587336;31;34376;-67
2023/06/29 02:49:39;;;;;;;5.37;1.90;;;;;;;15.59;100.00;100323.28;5587071;31;34548;-67
2023/06/29 02:52:42;;;;;;;5.40;1.90;;;;;;;15.56;100.00;100320.22;5587217;31;33804;-67
2023/06/29 02:55:45;;;;;;;6.47;1.85;;;;;;;15.56;100.00;100325.56;5587013;31;33710;-68
2023/06/29 02:58:48;;;;;;;3.67;1.73;;;;;;;15.54;100.00;100325.75;5587200;31;33479;-68
2023/06/29 03:01:53;;;;;;;3.30;1.83;;;;;;;15.51;100.00;100326.16;5587429;31;34772;-67
2023/06/29 03:04:56;;;;;;;5.25;2.00;;;;;;;15.45;100.00;100329.59;5587355;31;33812;-68
2023/06/29 03:07:58;;;;;;;6.25;1.90;;;;;;;15.49;100.00;100320.12;5587083;31;33958;-68
2023/06/29 03:11:01;;;;;;;5.47;2.00;;;;;;;15.50;100.00;100323.66;5587040;31;34807;-67
2023/06/29 03:14:04;;;;;;;5.80;2.03;;;;;;;15.48;100.00;100323.88;5587351;31;34337;-68
2023/06/29 03:17:08;;;;;;;9.13;1.75;;;;;;;15.47;100.00;100326.72;5587296;31;34638;-67
2023/06/29 03:20:13;;;;;;;4.93;1.90;;;;;;;15.47;100.00;100321.38;5587027;31;34253;-68
2023/06/29 03:23:15;;;;;;;5.00;1.73;;;;;;;15.49;100.00;100322.03;5586870;31;33958;-68
2023/06/29 03:26:18;;;;;;;4.90;2.00;;;;;;;15.40;100.00;100316.00;5586916;31;33878;-68
2023/06/29 03:29:21;;;;;;;4.62;1.95;;;;;;;15.33;100.00;100317.84;5585858;31;33508;-68
2023/06/29 03:32:24;;;;;;;4.85;1.70;;;;;;;15.33;100.00;100317.00;5585941;31;34689;-68
2023/06/29 03:35:26;;;;;;;6.72;2.10;;;;;;;15.40;100.00;100326.69;5585868;31;33867;-68
2023/06/29 03:38:29;;;;;;;3.35;1.50;;;;;;;15.40;100.00;100323.19;5586736;31;33553;-68
2023/06/29 03:41:32;;;;;;;5.22;2.00;;;;;;;15.41;100.00;100323.00;5586813;31;33570;-68
2023/06/29 03:44:36;;;;;;;4.60;1.60;;;;;;;15.52;100.00;100319.78;5586867;31;33706;-67
2023/06/29 03:47:38;;;;;;;5.90;2.00;;;;;;;15.72;100.00;100329.72;5586134;31;34325;-68
2023/06/29 03:50:42;;;;;;;4.85;2.10;;;;;;;15.81;100.00;100326.66;5585761;31;33790;-69
2023/06/29 03:53:46;;;;;;;4.85;1.80;;;;;;;15.85;100.00;100327.06;5586459;31;33817;-69
2023/06/29 03:56:50;;;;;;;5.85;2.10;;;;;;;15.89;100.00;100331.81;5585414;31;33747;-70
2023/06/29 03:59:52;;;;;;;5.65;1.87;;;;;;;15.99;100.00;100331.41;5585390;31;34234;-69
2023/06/29 04:02:55;;;;;;;6.10;1.80;;;;;;;16.00;100.00;100330.38;5586292;31;33500;-69
2023/06/29 04:05:59;;;;;;;6.05;1.98;;;;;;;15.95;100.00;100330.16;5586272;31;33726;-68
2023/06/29 04:09:04;;;;;;;8.30;1.90;;;;;;;16.00;100.00;100333.06;5586301;31;33869;-69
2023/06/29 04:12:07;;;;;;;6.10;2.35;;;;;;;16.16;100.00;100337.19;5578813;31;33553;-68
2023/06/29 04:15:10;;;;;;;6.57;2.15;;;;;;;16.25;100.00;100335.97;5578749;31;34466;-68
2023/06/29 04:18:13;;;;;;;6.20;1.90;;;;;;;16.32;100.00;100348.31;5581143;31;33719;-69
2023/06/29 04:21:15;;;;;;;6.37;2.00;;;;;;;16.39;100.00;100340.28;5577903;31;33667;-69
2023/06/29 04:24:18;;;;;;;3.75;1.90;;;;;;;16.38;100.00;100342.13;5566148;32;34480;-69
2023/06/29 04:27:21;;;;;;;3.25;1.80;;;;;;;16.36;100.00;100338.81;5566396;32;33890;-69
2023/06/29 04:30:23;;;;;;;3.65;1.77;;;;;;;16.50;100.00;100329.78;5567177;31;33832;-69
2023/06/29 04:33:26;;;;;;;8.15;1.95;;;;;;;16.43;100.00;100331.63;5572742;31;34340;-69
2023/06/29 04:36:30;;;;;;;4.05;2.03;;;;;;;16.51;100.00;100335.94;5575275;31;34079;-68
2023/06/29 04:39:33;;;;;;;3.75;1.80;;;;;;;16.48;100.00;100326.47;5568755;31;33826;-67
2023/06/29 04:42:45;;;;;;;6.55;2.20;;;;;;;16.63;100.00;100331.66;5565191;32;33888;-68
2023/06/29 04:45:48;;;;;;;8.93;2.37;;;;;;;16.62;100.00;100326.50;5565923;32;33723;-69
2023/06/29 04:48:51;;;;;;;10.57;1.80;;;;;;;16.66;100.00;100336.56;5564611;32;34513;-67
2023/06/29 04:51:55;;;;;;;6.25;2.22;;;;;;;16.79;99.21;100333.91;5565850;32;33907;-69
2023/06/29 04:55:02;;;;;;;9.90;2.10;;;;;;;16.87;98.84;100325.63;5565702;32;33574;-68
2023/06/29 04:58:05;;;;;;;6.43;1.98;;;;;;;17.01;98.06;100331.78;5565685;32;34454;-68
2023/06/29 05:01:07;;;;;;;5.75;2.05;;;;;;;17.06;96.98;100325.78;5565378;32;33811;-71
2023/06/29 05:04:10;;;;;;;6.32;2.05;;;;;;;17.02;98.37;100319.19;5565516;31;33760;-64
2023/06/29 05:07:13;;;;;;;7.57;2.00;;;;;;;17.12;96.27;100317.72;5565924;31;33504;-69
2023/06/29 05:10:16;;;;;;;4.93;2.10;;;;;;;17.13;95.72;100316.69;5566431;32;33825;-71
2023/06/29 05:13:18;;;;;;;9.05;2.10;;;;;;;17.09;95.47;100330.72;5582786;31;33552;-70
2023/06/29 05:16:21;;;;;;;9.57;2.50;;;;;;;17.23;96.88;100329.66;5587737;31;33756;-70
2023/06/29 05:19:24;;;;;;;6.78;2.37;;;;;;;17.26;96.29;100329.22;5578474;31;33694;-70
2023/06/29 05:22:27;;;;;;;5.85;2.22;;;;;;;17.41;94.34;100326.25;5568232;32;33629;-68
2023/06/29 05:25:29;;;;;;;6.47;2.15;;;;;;;17.50;94.13;100339.22;5568358;31;33720;-68
2023/06/29 05:28:32;;;;;;;7.30;2.28;;;;;;;17.45;94.14;100330.97;5569595;31;34539;-68
2023/06/29 05:31:35;;;;;;;5.25;2.12;;;;;;;17.53;94.02;100322.69;5581827;31;33757;-69
2023/06/29 05:34:38;;;;;;;5.30;2.10;;;;;;;17.70;92.48;100339.16;5587136;31;34833;-70
2023/06/29 05:37:41;;;;;;;5.57;2.17;;;;;;;17.72;93.00;100335.19;5562023;31;33783;-70
2023/06/29 05:40:43;;;;;;;7.65;2.65;;;;;;;17.84;93.81;100331.84;5577378;31;33747;-71
2023/06/29 05:43:46;;;;;;;7.60;2.10;;;;;;;17.86;92.44;100341.34;5573042;31;33937;-70
2023/06/29 05:46:49;;;;;;;5.82;2.22;;;;;;;17.95;91.46;100341.87;5574490;31;33793;-69
2023/06/29 05:49:53;;;;;;;5.35;2.20;;;;;;;17.93;92.34;100333.22;5586939;31;33674;-70
2023/06/29 05:52:56;;;;;;;6.32;2.20;;;;;;;18.04;92.77;100338.72;5584470;31;33780;-70
2023/06/29 05:55:59;;;;;;;8.68;2.45;;;;;;;18.10;91.32;100342.41;5604212;31;33781;-70
2023/06/29 05:59:04;;;;;;;10.18;2.20;;;;;;;18.02;91.79;100343.47;5600700;31;33698;-69
2023/06/29 06:02:07;;;;;;;7.32;2.12;;;;;;;18.20;90.58;100338.16;5581401;31;34368;-69
2023/06/29 06:05:10;;;;;;;5.75;2.20;;;;;;;18.22;90.94;100343.34;5587018;31;33783;-68
2023/06/29 06:08:14;;;;;;;9.88;2.25;;;;;;;18.38;89.32;100342.81;5587062;31;33686;-71
2023/06/29 06:11:17;;;;;;;5.85;2.10;;;;;;;18.40;89.40;100351.44;5586581;31;33994;-70
2023/06/29 06:14:20;;;;;;;6.85;2.30;;;;;;;18.39;88.98;100346.31;5586739;31;34031;-69
2023/06/29 06:17:23;;;;;;;13.88;2.37;;;;;;;18.67;89.31;100350.22;5586844;31;34526;-69
2023/06/29 06:20:26;;;;;;;6.43;2.20;;;;;;;18.60;88.92;100346.75;5585028;31;33717;-71
2023/06/29 06:23:29;;;;;;;3.40;1.98;;;;;;;18.60;88.34;100354.00;5575454;31;33735;-70
2023/06/29 06:26:35;;;;;;;6.78;2.15;;;;;;;18.61;90.39;100339.53;5567271;31;33668;-69
2023/06/29 06:29:38;;;;;;;5.25;2.15;;;;;;;18.69;88.21;100333.84;5574892;31;32216;-68
2023/06/29 06:32:44;;;;;;;8.23;2.17;;;;;;;18.88;87.05;100340.91;5586798;31;33728;-69
2023/06/29 06:35:47;;;;;;;8.80;2.37;;;;;;;19.04;87.37;100350.25;5587161;31;34302;-68
2023/06/29 06:38:50;;;;;;;9.77;2.00;;;;;;;19.03;87.61;100343.22;5581597;31;33730;-70
2023/06/29 06:41:53;;;;;;;8.23;2.20;;;;;;;19.18;85.29;100343.69;5566230;32;33674;-69
2023/06/29 06:44:56;;;;;;;6.80;2.00;;;;;;;19.06;86.17;100345.47;5566617;32;33529;-68
2023/06/29 06:47:59;;;;;;;6.72;2.25;;;;;;;19.30;85.80;100358.03;5565787;31;33411;-69
2023/06/29 06:51:01;;;;;;;5.18;2.20;;;;;;;19.14;84.88;100336.28;5569066;31;33788;-70
2023/06/29 06:54:04;;;;;;;6.93;2.20;;;;;;;19.34;85.38;100350.31;5584923;31;34937;-68
2023/06/29 06:57:07;;;;;;;5.00;1.83;;;;;;;19.60;83.51;100351.91;5576850;31;34164;-73
2023/06/29 07:00:12;;;;;;;4.75;2.12;;;;;;;19.63;83.19;100357.62;5575183;31;33352;-70
2023/06/29 07:03:15;;;;;;;10.43;2.35;;;;;;;19.70;84.37;100358.38;5583205;31;33825;-72
2023/06/29 07:06:20;;;;;;;7.45;2.25;;;;;;;19.92;82.45;100361.38;5579230;31;33868;-70
2023/06/29 07:09:23;;;;;;;5.57;1.95;;;;;;;20.05;81.77;100357.66;5574235;31;33479;-70
2023/06/29 07:12:26;;;;;;;5.55;1.90;;;;;;;20.28;80.22;100357.75;5579229;31;33773;-70
2023/06/29 07:15:29;;;;;;;8.77;2.10;;;;;;;20.36;79.03;100343.94;5573055;31;34622;-66
2023/06/29 07:18:37;;;;;;;8.27;2.42;;;;;;;20.67;77.28;100346.31;5567417;32;33850;-68
2023/06/29 07:21:41;;;;;;;6.25;1.90;;;;;;;20.95;75.95;100350.19;5567153;32;33842;-67
2023/06/29 07:24:44;;;;;;;4.47;2.40;;;;;;;21.01;74.52;100347.34;5567452;32;34448;-69
2023/06/29 07:27:46;;;;;;;4.05;1.80;;;;;;;21.32;72.31;100356.13;5566929;32;33804;-68
2023/06/29 07:30:51;;;;;;;4.50;1.87;;;;;;;21.55;70.08;100361.44;5566171;32;33818;-68
2023/06/29 07:33:55;;;;;;;9.02;2.67;;;;;;;21.48;71.52;100358.91;5565554;32;32184;-67
2023/06/29 07:36:58;;;;;;;5.15;2.03;;;;;;;21.71;72.02;100374.19;5566981;32;33521;-69
2023/06/29 07:40:02;;;;;;;18.60;6.47;;;;;;;21.48;73.34;100366.19;5566670;32;34517;-68
2023/06/29 07:43:05;;;;;;;14.82;4.85;;;;;;;21.51;74.30;100363.81;5569023;31;33382;-68
2023/06/29 07:46:08;;;;;;;10.82;3.15;;;;;;;21.05;99.94;100361.19;5531337;31;33475;-67
2023/06/29 07:49:12;;;;;;;8.65;2.12;;;;;;;21.19;88.13;100368.00;5575006;31;163249;-68
2023/06/29 07:52:16;;;;;;;14.90;3.35;;;;;;;22.04;76.41;100357.28;5585714;31;33767;-67
2023/06/29 07:55:19;;;;;;;7.20;2.58;;;;;;;22.27;73.62;100356.34;5586070;31;33490;-67
2023/06/29 07:58:21;;;;;;;8.65;2.00;;;;;;;22.61;67.88;100360.66;5588748;31;33855;-67
2023/06/29 08:01:27;;;;;;;7.40;2.33;;;;;;;22.85;70.08;100359.44;5585921;31;33561;-66
2023/06/29 08:04:30;;;;;;;4.10;1.92;;;;;;;23.74;64.40;100362.75;5586111;31;33357;-69
2023/06/29 08:07:36;;;;;;;5.15;1.83;;;;;;;23.27;63.88;100353.50;5585736;31;33681;-68
2023/06/29 08:10:39;;;;;;;6.97;1.80;;;;;;;24.34;61.27;100353.62;5585774;31;34254;-70
2023/06/29 08:13:41;;;;;;;4.10;1.50;;;;;;;23.83;62.26;100344.16;5585362;31;33353;-70
2023/06/29 08:16:44;;;;;;;9.02;1.80;;;;;;;24.59;58.05;100347.56;5586201;31;33893;-70
2023/06/29 08:19:47;;;;;;;5.78;1.48;;;;;;;25.01;55.94;100353.00;5585455;31;34433;-69
2023/06/29 08:22:51;;;;;;;3.28;1.70;;;;;;;25.66;53.76;100338.91;5585465;31;34754;-69
2023/06/29 08:25:54;;;;;;;4.75;1.70;;;;;;;26.24;54.03;100347.72;5585683;31;33724;-70
2023/06/29 08:28:56;;;;;;;4.60;1.65;;;;;;;26.08;53.12;100346.88;5585436;31;33857;-70
2023/06/29 08:31:59;;;;;;;3.90;1.70;;;;;;;25.57;52.75;100351.38;5578892;31;34436;-70
2023/06/29 08:35:02;;;;;;;4.62;1.62;;;;;;;27.45;46.75;100354.84;5585492;31;33711;-70
2023/06/29 08:38:07;;;;;;;7.55;1.70;;;;;;;27.46;49.73;100349.09;5584100;31;34210;-70
2023/06/29 08:41:10;;;;;;;3.62;1.40;;;;;;;28.11;45.03;100341.69;5585562;31;33620;-70
2023/06/29 08:44:13;;;;;;;7.95;1.80;;;;;;;27.22;47.36;100350.84;5572567;31;33876;-68
2023/06/29 08:47:17;;;;;;;8.55;1.60;;;;;;;27.39;47.19;100345.06;5587014;31;33459;-69
2023/06/29 08:50:25;;;;;;;4.75;1.85;;;;;;;26.80;47.44;100343.03;5587107;31;33269;-69
2023/06/29 08:53:28;;;;;;;7.15;1.60;;;;;;;27.27;46.91;100350.81;5584551;31;34587;-69
2023/06/29 08:56:32;;;;;;;11.85;1.73;;;;;;;28.46;43.27;100341.41;5582317;31;33845;-67
2023/06/29 08:59:37;;;;;;;8.05;1.55;;;;;;;27.76;45.32;100344.63;5593511;31;33898;-69
2023/06/29 09:02:39;;;;;;;2.55;1.35;;;;;;;28.64;44.44;100337.12;5596993;31;33967;-69
2023/06/29 09:05:45;;;;;;;2.75;1.37;;;;;;;28.06;43.48;100341.69;5586017;31;34673;-68
2023/06/29 09:08:48;;;;;;;3.87;1.70;;;;;;;27.07;46.23;100354.44;5597148;31;34782;-69
2023/06/29 09:11:51;;;;;;;3.42;1.70;;;;;;;24.71;51.22;100347.38;5584368;31;33228;-67
2023/06/29 09:14:57;;;;;;;16.33;2.28;;;;;;;24.06;52.81;100348.47;5587553;31;33532;-68
2023/06/29 09:18:00;;;;;;;4.43;1.55;;;;;;;24.56;53.64;100346.19;5586325;31;33762;-68
2023/06/29 09:21:03;;;;;;;3.65;1.73;;;;;;;24.63;52.41;100340.53;5600714;31;33872;-68
2023/06/29 09:24:08;;;;;;;2.80;1.50;;;;;;;25.45;51.26;100354.31;5606746;31;33699;-69
2023/06/29 09:27:11;;;;;;;4.47;1.55;;;;;;;25.09;50.72;100336.22;5606766;31;33793;-69
2023/06/29 09:30:20;;;;;;;9.13;1.90;;;;;;;24.64;51.29;100340.25;5607195;31;34793;-68
2023/06/29 09:33:25;;;;;;;13.32;1.98;;;;;;;25.71;50.81;100347.06;5607070;31;34475;-69
2023/06/29 09:36:28;;;;;;;3.95;1.50;;;;;;;28.46;45.15;100341.41;5606960;31;34526;-69
2023/06/29 09:39:31;;;;;;;2.62;1.40;;;;;;;30.57;39.48;100341.66;5607916;31;33899;-70
2023/06/29 09:42:37;;;;;;;4.87;1.60;;;;;;;31.70;37.68;100341.09;5614979;31;34158;-71
2023/06/29 09:45:41;;;;;;;6.35;1.40;;;;;;;30.09;38.91;100341.09;5577272;31;34372;-68
2023/06/29 09:48:45;;;;;;;5.53;1.60;;;;;;;31.11;38.31;100342.06;5566141;31;34378;-69
2023/06/29 09:52:03;;;;;;;3.95;1.60;;;;;;;29.33;40.58;100339.41;5571033;31;33510;-70
2023/06/29 09:55:17;;;;;;;4.65;1.42;;;;;;;27.47;43.87;100336.31;5581997;31;34498;-71
2023/06/29 09:58:21;;;;;;;6.68;1.80;;;;;;;28.45;42.04;100336.22;5585760;31;33746;-70
2023/06/29 10:01:28;;;;;;;4.93;1.67;;;;;;;28.50;42.02;100331.53;5587368;31;34492;-69
2023/06/29 10:04:40;;;;;;;3.58;1.50;;;;;;;28.98;41.06;100337.06;5573737;31;33806;-70
2023/06/29 10:07:43;;;;;;;3.87;1.40;;;;;;;29.50;39.72;100335.34;5586029;31;33806;-69
2023/06/29 10:10:47;;;;;;;4.43;1.62;;;;;;;28.73;42.15;100340.06;5587205;31;33547;-70
2023/06/29 10:13:54;;;;;;;4.30;1.50;;;;;;;27.98;43.13;100334.12;5570595;31;34430;-70
2023/06/29 10:16:57;;;;;;;6.37;1.70;;;;;;;27.60;43.22;100335.72;5584590;31;33599;-70
2023/06/29 10:20:01;;;;;;;3.65;1.45;;;;;;;27.45;45.05;100341.22;5586691;31;34540;-69
2023/06/29 10:23:07;;;;;;;5.65;1.30;;;;;;;27.38;44.24;100335.25;5586388;31;33884;-70
2023/06/29 10:26:11;;;;;;;3.20;1.37;;;;;;;28.61;41.79;100331.44;5587197;31;33746;-70
2023/06/29 10:29:14;;;;;;;5.60;1.35;;;;;;;30.49;38.70;100339.63;5586867;31;33521;-69
2023/06/29 10:32:30;;;;;;;4.10;1.25;;;;;;;29.08;40.73;100336.97;5587257;31;34094;-68
2023/06/29 10:35:33;;;;;;;2.50;1.48;;;;;;;29.58;39.49;100345.66;5586958;31;33600;-69
2023/06/29 10:38:35;;;;;;;2.22;1.30;;;;;;;28.37;41.48;100336.84;5586649;31;33688;-69
2023/06/29 10:41:38;;;;;;;5.30;1.48;;;;;;;29.41;40.78;100324.28;5586949;31;34595;-69
2023/06/29 10:44:46;;;;;;;3.67;1.40;;;;;;;30.59;37.63;100328.50;5586573;31;33547;-70
2023/06/29 10:47:55;;;;;;;2.20;1.13;;;;;;;31.50;35.92;100334.09;5580581;31;34497;-68
2023/06/29 10:50:58;;;;;;;;;;;;;;;30.95;36.90;100330.53;5589779;31;33754;-69
2023/06/29 10:54:02;;;;;;;1.83;1.30;;;;;;;32.74;34.23;100325.06;5603186;31;34704;-70
2023/06/29 10:57:07;;;;;;;5.15;1.42;;;;;;;34.08;31.10;100324.41;5604426;31;34393;-70
2023/06/29 11:00:11;;;;;;;4.87;1.50;;;;;;;32.93;33.57;100315.75;5575460;31;34603;-70
2023/06/29 11:03:16;;;;;;;2.62;1.15;;;;;;;32.61;33.52;100316.91;5566833;32;33968;-70
2023/06/29 11:06:19;;;;;;;4.40;1.50;;;;;;;31.64;34.15;100320.38;5566591;32;34901;-70
2023/06/29 11:09:42;;;;;;;2.65;1.37;;;;;;;30.26;36.76;100315.09;5566104;32;35186;-70
2023/06/29 11:12:45;;;;;;;2.17;1.40;;;;;;;33.07;33.61;100308.22;5565931;31;34329;-70
2023/06/29 11:15:53;;;;;;;3.65;1.37;;;;;;;32.48;33.62;100309.56;5579048;31;34613;-70
2023/06/29 11:18:56;;;;;;;3.87;1.40;;;;;;;28.50;39.51;100306.97;5566762;32;34884;-69
2023/06/29 11:22:00;;;;;;;3.22;1.50;;;;;;;30.19;36.63;100301.78;5580496;31;34509;-70
2023/06/29 11:25:03;;;;;;;8.10;1.60;;;;;;;33.21;32.55;100300.69;5585997;31;33908;-69
2023/06/29 11:28:07;;;;;;;3.55;1.42;;;;;;;31.68;34.14;100313.97;5581263;31;35458;-71
2023/06/29 11:31:10;;;;;;;6.30;1.77;;;;;;;28.93;39.50;100304.34;5594630;31;34529;-70
2023/06/29 11:34:13;;;;;;;4.37;1.90;;;;;;;28.83;38.50;100301.75;5584773;31;34438;-71
2023/06/29 11:37:17;;;;;;;2.87;1.30;;;;;;;31.26;34.95;100301.44;5580251;31;34230;-71
2023/06/29 11:40:24;;;;;;;11.77;1.62;;;;;;;33.43;32.47;100297.81;5575646;31;33991;-71
2023/06/29 11:43:29;;;;;;;5.70;1.50;;;;;;;36.24;29.30;100305.63;5581752;31;33797;-71
2023/06/29 11:46:35;;;;;;;3.60;1.30;;;;;;;35.00;28.46;100308.28;5585379;31;34517;-71
2023/06/29 11:49:38;;;;;;;3.05;1.23;;;;;;;35.63;27.89;100307.28;5582441;31;33528;-72
2023/06/29 11:52:44;;;;;;;3.10;1.27;;;;;;;36.69;26.15;100307.59;5575261;31;33941;-69
2023/06/29 11:55:51;;;;;;;3.92;1.27;;;;;;;36.73;26.66;100300.22;5583397;31;33639;-70
2023/06/29 11:58:54;;;;;;;3.72;1.08;;;;;;;36.53;26.51;100299.94;5580540;31;33941;-70
2023/06/29 12:01:56;;;;;;;4.43;1.30;;;;;;;34.82;28.19;100300.09;5581892;31;34947;-71
2023/06/29 12:05:03;;;;;;;7.78;1.83;;;;;;;30.44;34.66;100286.84;5570878;31;33655;-70
2023/06/29 12:08:08;;;;;;;4.00;1.50;;;;;;;29.90;36.38;100293.78;5585622;31;34477;-71
2023/06/29 12:11:16;;;;;;;2.78;1.35;;;;;;;33.59;30.21;100284.41;5585648;31;34440;-71
2023/06/29 12:14:19;;;;;;;4.72;1.50;;;;;;;33.07;30.79;100286.22;5585266;31;33020;-70
2023/06/29 12:17:23;;;;;;;4.32;1.30;;;;;;;36.01;27.40;100288.59;5585470;31;33885;-71
2023/06/29 12:20:37;;;;;;;2.08;1.15;;;;;;;38.27;24.75;100283.97;5586224;31;34425;-73
2023/06/29 12:23:41;;;;;;;4.25;1.30;;;;;;;38.85;23.50;100272.38;5587859;31;33854;-70
2023/06/29 12:26:43;;;;;;;4.20;1.20;;;;;;;39.85;23.00;100279.81;5588308;31;33821;-72
2023/06/29 12:29:46;;;;;;;1.70;1.20;;;;;;;37.53;24.49;100262.47;5574273;31;34049;-72
2023/06/29 12:32:51;;;;;;;2.58;1.17;;;;;;;39.35;23.01;100266.88;5579332;31;33867;-70
2023/06/29 12:35:54;;;;;;;4.97;1.42;;;;;;;38.70;23.26;100260.13;5578247;31;33977;-70
2023/06/29 12:38:57;;;;;;;4.25;1.12;;;;;;;37.91;24.26;100259.19;5577890;31;32314;-71
2023/06/29 12:42:00;;;;;;;1.87;1.20;;;;;;;35.56;26.29;100255.38;5571999;31;34379;-72
2023/06/29 12:45:04;;;;;;;2.22;1.27;;;;;;;37.06;24.33;100250.31;5585943;31;34189;-71
2023/06/29 12:48:07;;;;;;;2.87;1.58;;;;;;;35.84;26.47;100241.81;5571161;31;33634;-70
2023/06/29 12:51:10;;;;;;;9.43;1.40;;;;;;;31.56;32.03;100245.16;5575066;31;34501;-71
2023/06/29 12:54:13;;;;;;;1.30;1.02;;;;;;;35.52;26.69;100248.91;5571416;31;34515;-71
2023/06/29 12:57:16;;;;;;;2.42;1.33;;;;;;;34.51;28.71;100241.69;5580870;31;34002;-71
2023/06/29 13:00:21;;;;;;;2.58;1.25;;;;;;;37.22;24.80;100234.63;5579254;31;33764;-70
2023/06/29 13:03:26;;;;;;;1.62;1.40;;;;;;;35.63;26.99;100241.03;5573414;31;33598;-70
2023/06/29 13:06:32;;;;;;;4.03;1.30;;;;;;;39.22;23.75;100240.34;5572858;31;33879;-71
2023/06/29 13:09:37;;;;;;;2.90;1.23;;;;;;;36.32;25.35;100230.13;5576018;31;33863;-71
2023/06/29 13:12:41;;;;;;;1.58;1.10;;;;;;;33.48;28.35;100228.09;5568765;31;33905;-71
2023/06/29 13:15:44;;;;;;;2.90;1.37;;;;;;;34.27;27.97;100220.25;5567942;32;34835;-71
2023/06/29 13:18:48;;;;;;;2.55;1.12;;;;;;;34.64;27.89;100226.87;5568209;31;33781;-71
2023/06/29 13:21:51;;;;;;;2.08;1.25;;;;;;;36.34;25.55;100230.59;5568766;31;33644;-72
2023/06/29 13:24:54;;;;;;;2.95;1.37;;;;;;;37.72;24.55;100218.31;5582558;31;33585;-72
2023/06/29 13:27:56;;;;;;;2.28;1.30;;;;;;;37.38;24.98;100222.47;5577648;31;34011;-71
2023/06/29 13:30:59;;;;;;;1.80;1.27;;;;;;;41.80;21.62;100221.72;5588019;31;34793;-71
2023/06/29 13:34:03;;;;;;;3.92;1.20;;;;;;;38.63;22.59;100221.16;5593315;31;33757;-71
2023/06/29 13:37:06;;;;;;;3.72;1.30;;;;;;;38.36;22.35;100210.94;5590747;31;33665;-71
2023/06/29 13:40:09;;;;;;;7.87;1.27;;;;;;;39.90;21.20;100221.19;5587459;31;33997;-71
2023/06/29 13:43:12;;;;;;;8.70;1.80;;;;;;;42.65;19.38;100219.75;5576655;31;32749;-71
2023/06/29 13:46:15;;;;;;;2.92;1.30;;;;;;;39.84;21.91;100217.13;5567647;32;34171;-72
2023/06/29 13:49:18;;;;;;;9.98;1.50;;;;;;;38.38;23.03;100205.84;5572651;31;33749;-71
2023/06/29 13:52:21;;;;;;;1.25;1.12;;;;;;;40.59;21.88;100210.06;5582202;31;33821;-71
2023/06/29 13:55:24;;;;;;;4.00;1.40;;;;;;;36.91;24.31;100208.38;5571184;31;34483;-71
2023/06/29 13:58:26;;;;;;;2.47;1.17;;;;;;;38.89;22.12;100215.03;5567399;32;33890;-71
2023/06/29 14:01:30;;;;;;;1.30;1.20;;;;;;;38.19;22.46;100203.78;5571448;31;34101;-71
2023/06/29 14:04:33;;;;;;;57.22;3.17;;;;;;;38.29;22.78;100195.72;5577879;31;33823;-71
2023/06/29 14:07:35;;;;;;;3.22;1.48;;;;;;;40.47;21.41;100199.16;5575879;31;33826;-73
2023/06/29 14:10:38;;;;;;;2.53;1.45;;;;;;;38.01;23.58;100188.66;5569787;31;33622;-72